sensor_id;sensor_type;location;lat;lon;timestamp;P1;durP1;ratioP1;P2;durP2;ratioP2
21438;SDS011;10880;50.302;18.736;2023-03-20T00:02:59;31.20;;;13.70;;
21438;SDS011;10880;50.302;18.736;2023-03-20T00:05:26;29.47;;;13.33;;
21438;SDS011;10880;50.302;18.736;2023-03-20T00:07:55;40.07;;;16.93;;
21438;SDS011;10880;50.302;18.736;2023-03-20T00:10:24;35.37;;;15.63;;
21438;SDS011;10880;50.302;18.736;2023-03-20T00:12:52;31.40;;;13.33;;
21438;SDS011;10880;50.302;18.736;2023-03-20T00:15:26;26.03;;;11.53;;
21438;SDS011;10880;50.302;18.736;2023-03-20T00:17:53;24.03;;;10.17;;
21438;SDS011;10880;50.302;18.736;2023-03-20T00:20:20;25.93;;;11.77;;
21438;SDS011;10880;50.302;18.736;2023-03-20T00:22:48;27.47;;;10.37;;
21438;SDS011;10880;50.302;18.736;2023-03-20T00:25:16;27.73;;;11.87;;
21438;SDS011;10880;50.302;18.736;2023-03-20T00:27:48;28.13;;;11.00;;
21438;SDS011;10880;50.302;18.736;2023-03-20T00:30:18;28.97;;;12.53;;
21438;SDS011;10880;50.302;18.736;2023-03-20T00:32:46;31.93;;;11.90;;
21438;SDS011;10880;50.302;18.736;2023-03-20T00:37:46;30.67;;;12.33;;
21438;SDS011;10880;50.302;18.736;2023-03-20T00:40:13;22.50;;;10.20;;
21438;SDS011;10880;50.302;18.736;2023-03-20T00:42:41;22.70;;;10.10;;
21438;SDS011;10880;50.302;18.736;2023-03-20T00:45:11;24.67;;;9.87;;
21438;SDS011;10880;50.302;18.736;2023-03-20T00:47:41;20.93;;;9.43;;
21438;SDS011;10880;50.302;18.736;2023-03-20T00:50:15;19.80;;;9.30;;
21438;SDS011;10880;50.302;18.736;2023-03-20T00:52:45;19.60;;;9.40;;
21438;SDS011;10880;50.302;18.736;2023-03-20T00:55:12;19.87;;;8.90;;
21438;SDS011;10880;50.302;18.736;2023-03-20T00:57:41;18.90;;;9.20;;
21438;SDS011;10880;50.302;18.736;2023-03-20T01:02:37;23.27;;;10.47;;
21438;SDS011;10880;50.302;18.736;2023-03-20T01:05:04;23.07;;;9.87;;
21438;SDS011;10880;50.302;18.736;2023-03-20T01:07:31;31.77;;;13.27;;
21438;SDS011;10880;50.302;18.736;2023-03-20T01:09:58;23.63;;;10.40;;
21438;SDS011;10880;50.302;18.736;2023-03-20T01:12:25;28.57;;;11.80;;
21438;SDS011;10880;50.302;18.736;2023-03-20T01:14:52;26.77;;;10.57;;
21438;SDS011;10880;50.302;18.736;2023-03-20T01:17:20;25.47;;;11.77;;
21438;SDS011;10880;50.302;18.736;2023-03-20T01:19:47;25.97;;;11.17;;
21438;SDS011;10880;50.302;18.736;2023-03-20T01:22:14;25.20;;;10.73;;
21438;SDS011;10880;50.302;18.736;2023-03-20T01:24:42;29.47;;;12.50;;
21438;SDS011;10880;50.302;18.736;2023-03-20T01:27:13;28.63;;;11.73;;
21438;SDS011;10880;50.302;18.736;2023-03-20T01:29:40;29.77;;;12.87;;
21438;SDS011;10880;50.302;18.736;2023-03-20T01:32:12;31.63;;;13.33;;
21438;SDS011;10880;50.302;18.736;2023-03-20T01:34:40;25.13;;;11.53;;
21438;SDS011;10880;50.302;18.736;2023-03-20T01:37:13;25.13;;;10.90;;
21438;SDS011;10880;50.302;18.736;2023-03-20T01:39:43;27.00;;;10.20;;
21438;SDS011;10880;50.302;18.736;2023-03-20T01:42:11;23.63;;;10.03;;
21438;SDS011;10880;50.302;18.736;2023-03-20T01:44:41;25.43;;;10.40;;
21438;SDS011;10880;50.302;18.736;2023-03-20T01:47:15;26.73;;;12.33;;
21438;SDS011;10880;50.302;18.736;2023-03-20T01:52:41;28.13;;;13.00;;
21438;SDS011;10880;50.302;18.736;2023-03-20T01:55:08;34.90;;;15.47;;
21438;SDS011;10880;50.302;18.736;2023-03-20T01:57:36;32.40;;;13.53;;
21438;SDS011;10880;50.302;18.736;2023-03-20T02:00:05;30.40;;;13.17;;
21438;SDS011;10880;50.302;18.736;2023-03-20T02:02:41;28.23;;;11.93;;
21438;SDS011;10880;50.302;18.736;2023-03-20T02:05:10;26.53;;;11.60;;
21438;SDS011;10880;50.302;18.736;2023-03-20T02:07:41;27.47;;;11.20;;
21438;SDS011;10880;50.302;18.736;2023-03-20T02:10:14;24.13;;;11.20;;
21438;SDS011;10880;50.302;18.736;2023-03-20T02:12:56;29.93;;;12.03;;
21438;SDS011;10880;50.302;18.736;2023-03-20T02:15:31;22.50;;;10.03;;
21438;SDS011;10880;50.302;18.736;2023-03-20T02:18:12;26.83;;;12.20;;
21438;SDS011;10880;50.302;18.736;2023-03-20T02:20:44;33.63;;;14.83;;
21438;SDS011;10880;50.302;18.736;2023-03-20T02:37:01;23.50;;;10.30;;
21438;SDS011;10880;50.302;18.736;2023-03-20T02:42:32;25.87;;;10.77;;
21438;SDS011;10880;50.302;18.736;2023-03-20T02:48:32;29.50;;;13.40;;
21438;SDS011;10880;50.302;18.736;2023-03-20T02:51:19;29.17;;;12.60;;
21438;SDS011;10880;50.302;18.736;2023-03-20T02:54:02;33.97;;;14.40;;
21438;SDS011;10880;50.302;18.736;2023-03-20T02:56:48;38.30;;;16.60;;
21438;SDS011;10880;50.302;18.736;2023-03-20T03:02:11;32.07;;;13.83;;
21438;SDS011;10880;50.302;18.736;2023-03-20T03:04:59;29.93;;;14.10;;
21438;SDS011;10880;50.302;18.736;2023-03-20T03:07:31;24.30;;;12.13;;
21438;SDS011;10880;50.302;18.736;2023-03-20T03:10:10;30.17;;;13.27;;
21438;SDS011;10880;50.302;18.736;2023-03-20T03:12:44;31.87;;;13.23;;
21438;SDS011;10880;50.302;18.736;2023-03-20T03:15:15;25.90;;;11.70;;
21438;SDS011;10880;50.302;18.736;2023-03-20T03:17:46;21.57;;;10.97;;
21438;SDS011;10880;50.302;18.736;2023-03-20T03:22:47;27.37;;;10.90;;
21438;SDS011;10880;50.302;18.736;2023-03-20T03:25:14;21.77;;;10.53;;
21438;SDS011;10880;50.302;18.736;2023-03-20T03:27:41;23.67;;;10.70;;
21438;SDS011;10880;50.302;18.736;2023-03-20T03:30:16;18.97;;;9.87;;
21438;SDS011;10880;50.302;18.736;2023-03-20T03:32:49;23.30;;;10.27;;
21438;SDS011;10880;50.302;18.736;2023-03-20T03:35:20;26.93;;;11.70;;
21438;SDS011;10880;50.302;18.736;2023-03-20T03:37:52;21.93;;;9.40;;
21438;SDS011;10880;50.302;18.736;2023-03-20T03:40:30;20.87;;;9.57;;
21438;SDS011;10880;50.302;18.736;2023-03-20T03:45:53;29.47;;;12.70;;
21438;SDS011;10880;50.302;18.736;2023-03-20T03:48:33;25.73;;;10.87;;
21438;SDS011;10880;50.302;18.736;2023-03-20T03:51:07;19.67;;;8.93;;
21438;SDS011;10880;50.302;18.736;2023-03-20T03:54:01;20.63;;;10.07;;
21438;SDS011;10880;50.302;18.736;2023-03-20T03:56:34;25.57;;;9.70;;
21438;SDS011;10880;50.302;18.736;2023-03-20T03:59:05;22.80;;;9.80;;
21438;SDS011;10880;50.302;18.736;2023-03-20T04:01:38;21.67;;;8.27;;
21438;SDS011;10880;50.302;18.736;2023-03-20T04:04:09;18.87;;;8.23;;
21438;SDS011;10880;50.302;18.736;2023-03-20T04:06:37;18.70;;;7.83;;
21438;SDS011;10880;50.302;18.736;2023-03-20T04:09:05;24.03;;;8.70;;
21438;SDS011;10880;50.302;18.736;2023-03-20T04:11:32;18.30;;;7.90;;
21438;SDS011;10880;50.302;18.736;2023-03-20T04:14:01;14.33;;;7.23;;
21438;SDS011;10880;50.302;18.736;2023-03-20T04:16:29;16.37;;;7.40;;
21438;SDS011;10880;50.302;18.736;2023-03-20T04:18:56;21.57;;;7.83;;
21438;SDS011;10880;50.302;18.736;2023-03-20T04:21:23;31.20;;;10.47;;
21438;SDS011;10880;50.302;18.736;2023-03-20T04:23:50;49.53;;;13.03;;
21438;SDS011;10880;50.302;18.736;2023-03-20T04:26:20;28.33;;;8.73;;
21438;SDS011;10880;50.302;18.736;2023-03-20T04:28:47;20.23;;;7.83;;
21438;SDS011;10880;50.302;18.736;2023-03-20T04:31:16;19.10;;;7.37;;
21438;SDS011;10880;50.302;18.736;2023-03-20T04:34:02;15.60;;;6.80;;
21438;SDS011;10880;50.302;18.736;2023-03-20T04:36:47;18.70;;;6.77;;
21438;SDS011;10880;50.302;18.736;2023-03-20T04:39:16;15.03;;;6.03;;
21438;SDS011;10880;50.302;18.736;2023-03-20T04:41:43;16.73;;;5.97;;
21438;SDS011;10880;50.302;18.736;2023-03-20T04:44:10;21.77;;;7.17;;
21438;SDS011;10880;50.302;18.736;2023-03-20T04:46:39;16.00;;;6.70;;
21438;SDS011;10880;50.302;18.736;2023-03-20T04:49:13;14.83;;;6.40;;
21438;SDS011;10880;50.302;18.736;2023-03-20T04:51:41;13.80;;;5.80;;
21438;SDS011;10880;50.302;18.736;2023-03-20T04:54:09;10.87;;;5.90;;
21438;SDS011;10880;50.302;18.736;2023-03-20T04:56:36;10.60;;;5.33;;
21438;SDS011;10880;50.302;18.736;2023-03-20T04:59:13;12.93;;;5.47;;
21438;SDS011;10880;50.302;18.736;2023-03-20T05:01:40;13.37;;;5.43;;
21438;SDS011;10880;50.302;18.736;2023-03-20T05:04:07;11.07;;;6.20;;
21438;SDS011;10880;50.302;18.736;2023-03-20T05:06:35;12.37;;;5.70;;
21438;SDS011;10880;50.302;18.736;2023-03-20T05:09:03;10.80;;;5.20;;
21438;SDS011;10880;50.302;18.736;2023-03-20T05:11:31;9.27;;;5.23;;
21438;SDS011;10880;50.302;18.736;2023-03-20T05:14:04;10.40;;;5.20;;
21438;SDS011;10880;50.302;18.736;2023-03-20T05:16:34;10.00;;;4.90;;
21438;SDS011;10880;50.302;18.736;2023-03-20T05:19:23;11.30;;;5.20;;
21438;SDS011;10880;50.302;18.736;2023-03-20T05:22:28;12.33;;;5.20;;
21438;SDS011;10880;50.302;18.736;2023-03-20T05:25:14;9.47;;;4.27;;
21438;SDS011;10880;50.302;18.736;2023-03-20T05:28:10;9.57;;;4.73;;
21438;SDS011;10880;50.302;18.736;2023-03-20T05:30:57;7.53;;;4.23;;
21438;SDS011;10880;50.302;18.736;2023-03-20T05:33:40;9.20;;;4.60;;
21438;SDS011;10880;50.302;18.736;2023-03-20T05:36:20;9.93;;;5.13;;
21438;SDS011;10880;50.302;18.736;2023-03-20T05:39:19;9.77;;;5.40;;
21438;SDS011;10880;50.302;18.736;2023-03-20T05:42:09;12.10;;;4.83;;
21438;SDS011;10880;50.302;18.736;2023-03-20T05:44:48;11.90;;;5.73;;
21438;SDS011;10880;50.302;18.736;2023-03-20T05:47:34;10.83;;;5.10;;
21438;SDS011;10880;50.302;18.736;2023-03-20T05:50:13;10.07;;;5.27;;
21438;SDS011;10880;50.302;18.736;2023-03-20T05:53:11;10.00;;;4.83;;
21438;SDS011;10880;50.302;18.736;2023-03-20T05:56:01;12.77;;;5.17;;
21438;SDS011;10880;50.302;18.736;2023-03-20T05:58:47;15.07;;;5.97;;
21438;SDS011;10880;50.302;18.736;2023-03-20T06:01:34;20.63;;;7.37;;
21438;SDS011;10880;50.302;18.736;2023-03-20T06:04:33;22.10;;;8.60;;
21438;SDS011;10880;50.302;18.736;2023-03-20T06:07:24;14.63;;;7.07;;
21438;SDS011;10880;50.302;18.736;2023-03-20T06:10:05;20.90;;;7.73;;
21438;SDS011;10880;50.302;18.736;2023-03-20T06:12:32;22.67;;;8.67;;
21438;SDS011;10880;50.302;18.736;2023-03-20T06:15:00;16.80;;;6.63;;
21438;SDS011;10880;50.302;18.736;2023-03-20T06:17:29;16.07;;;5.47;;
21438;SDS011;10880;50.302;18.736;2023-03-20T06:20:01;12.53;;;5.43;;
21438;SDS011;10880;50.302;18.736;2023-03-20T06:22:29;11.13;;;5.13;;
21438;SDS011;10880;50.302;18.736;2023-03-20T06:24:56;8.90;;;5.00;;
21438;SDS011;10880;50.302;18.736;2023-03-20T06:27:27;5.53;;;4.17;;
21438;SDS011;10880;50.302;18.736;2023-03-20T06:29:55;5.10;;;4.13;;
21438;SDS011;10880;50.302;18.736;2023-03-20T06:32:29;6.33;;;4.17;;
21438;SDS011;10880;50.302;18.736;2023-03-20T06:34:58;6.37;;;3.97;;
21438;SDS011;10880;50.302;18.736;2023-03-20T06:37:25;5.53;;;3.83;;
21438;SDS011;10880;50.302;18.736;2023-03-20T06:39:59;7.73;;;4.90;;
21438;SDS011;10880;50.302;18.736;2023-03-20T06:42:26;6.80;;;4.33;;
21438;SDS011;10880;50.302;18.736;2023-03-20T06:44:53;6.77;;;4.60;;
21438;SDS011;10880;50.302;18.736;2023-03-20T06:47:53;6.10;;;4.57;;
21438;SDS011;10880;50.302;18.736;2023-03-20T06:50:21;7.93;;;4.40;;
21438;SDS011;10880;50.302;18.736;2023-03-20T06:52:48;5.30;;;4.20;;
21438;SDS011;10880;50.302;18.736;2023-03-20T06:55:32;7.63;;;4.60;;
21438;SDS011;10880;50.302;18.736;2023-03-20T06:57:59;8.90;;;5.70;;
21438;SDS011;10880;50.302;18.736;2023-03-20T07:00:26;6.83;;;4.73;;
21438;SDS011;10880;50.302;18.736;2023-03-20T07:02:54;13.13;;;6.10;;
21438;SDS011;10880;50.302;18.736;2023-03-20T07:05:21;7.70;;;4.57;;
21438;SDS011;10880;50.302;18.736;2023-03-20T07:07:48;6.33;;;4.00;;
21438;SDS011;10880;50.302;18.736;2023-03-20T07:10:15;9.73;;;6.53;;
21438;SDS011;10880;50.302;18.736;2023-03-20T07:12:47;12.47;;;6.47;;
21438;SDS011;10880;50.302;18.736;2023-03-20T07:15:16;7.50;;;5.30;;
21438;SDS011;10880;50.302;18.736;2023-03-20T07:17:43;7.10;;;4.70;;
21438;SDS011;10880;50.302;18.736;2023-03-20T07:20:10;7.87;;;4.70;;
21438;SDS011;10880;50.302;18.736;2023-03-20T07:22:37;6.60;;;4.93;;
21438;SDS011;10880;50.302;18.736;2023-03-20T07:25:14;7.40;;;5.27;;
21438;SDS011;10880;50.302;18.736;2023-03-20T07:27:41;6.47;;;4.73;;
21438;SDS011;10880;50.302;18.736;2023-03-20T07:30:15;7.80;;;5.10;;
21438;SDS011;10880;50.302;18.736;2023-03-20T07:32:43;7.80;;;5.00;;
21438;SDS011;10880;50.302;18.736;2023-03-20T07:35:11;6.43;;;4.63;;
21438;SDS011;10880;50.302;18.736;2023-03-20T07:37:40;7.23;;;4.80;;
21438;SDS011;10880;50.302;18.736;2023-03-20T07:40:08;7.83;;;4.50;;
21438;SDS011;10880;50.302;18.736;2023-03-20T07:42:54;9.73;;;5.00;;
21438;SDS011;10880;50.302;18.736;2023-03-20T07:45:50;7.97;;;5.20;;
21438;SDS011;10880;50.302;18.736;2023-03-20T07:48:18;9.77;;;6.20;;
21438;SDS011;10880;50.302;18.736;2023-03-20T07:50:45;7.53;;;5.17;;
21438;SDS011;10880;50.302;18.736;2023-03-20T07:53:12;9.20;;;6.10;;
21438;SDS011;10880;50.302;18.736;2023-03-20T07:55:39;7.73;;;4.87;;
21438;SDS011;10880;50.302;18.736;2023-03-20T07:58:09;7.53;;;5.30;;
21438;SDS011;10880;50.302;18.736;2023-03-20T08:00:35;6.73;;;4.93;;
21438;SDS011;10880;50.302;18.736;2023-03-20T08:03:02;5.73;;;4.40;;
21438;SDS011;10880;50.302;18.736;2023-03-20T08:05:29;6.57;;;4.67;;
21438;SDS011;10880;50.302;18.736;2023-03-20T08:07:56;7.13;;;4.67;;
21438;SDS011;10880;50.302;18.736;2023-03-20T08:10:23;8.40;;;5.77;;
21438;SDS011;10880;50.302;18.736;2023-03-20T08:12:50;11.40;;;6.27;;
21438;SDS011;10880;50.302;18.736;2023-03-20T08:15:18;7.53;;;5.13;;
21438;SDS011;10880;50.302;18.736;2023-03-20T08:17:45;8.60;;;6.07;;
21438;SDS011;10880;50.302;18.736;2023-03-20T08:20:12;8.00;;;5.33;;
21438;SDS011;10880;50.302;18.736;2023-03-20T08:22:40;7.40;;;4.97;;
21438;SDS011;10880;50.302;18.736;2023-03-20T08:25:07;6.20;;;4.73;;
21438;SDS011;10880;50.302;18.736;2023-03-20T08:27:34;9.20;;;5.30;;
21438;SDS011;10880;50.302;18.736;2023-03-20T08:30:02;7.23;;;5.17;;
21438;SDS011;10880;50.302;18.736;2023-03-20T08:32:29;14.33;;;8.77;;
21438;SDS011;10880;50.302;18.736;2023-03-20T08:34:55;10.70;;;6.47;;
21438;SDS011;10880;50.302;18.736;2023-03-20T08:37:22;9.50;;;6.00;;
21438;SDS011;10880;50.302;18.736;2023-03-20T08:39:49;14.87;;;8.00;;
21438;SDS011;10880;50.302;18.736;2023-03-20T08:42:16;12.73;;;8.23;;
21438;SDS011;10880;50.302;18.736;2023-03-20T08:44:43;13.33;;;8.60;;
21438;SDS011;10880;50.302;18.736;2023-03-20T08:47:10;9.03;;;6.10;;
21438;SDS011;10880;50.302;18.736;2023-03-20T08:49:37;7.13;;;5.33;;
21438;SDS011;10880;50.302;18.736;2023-03-20T08:52:03;20.83;;;11.80;;
21438;SDS011;10880;50.302;18.736;2023-03-20T08:54:30;11.07;;;7.57;;
21438;SDS011;10880;50.302;18.736;2023-03-20T08:56:59;12.53;;;6.93;;
21438;SDS011;10880;50.302;18.736;2023-03-20T08:59:25;12.80;;;8.43;;
21438;SDS011;10880;50.302;18.736;2023-03-20T09:01:52;9.63;;;6.37;;
21438;SDS011;10880;50.302;18.736;2023-03-20T09:04:19;7.90;;;5.47;;
21438;SDS011;10880;50.302;18.736;2023-03-20T09:06:46;6.53;;;4.80;;
21438;SDS011;10880;50.302;18.736;2023-03-20T09:09:13;7.23;;;5.47;;
21438;SDS011;10880;50.302;18.736;2023-03-20T09:11:40;9.13;;;5.30;;
21438;SDS011;10880;50.302;18.736;2023-03-20T09:14:07;6.23;;;4.73;;
21438;SDS011;10880;50.302;18.736;2023-03-20T09:16:34;7.90;;;5.20;;
21438;SDS011;10880;50.302;18.736;2023-03-20T09:19:01;8.07;;;5.70;;
21438;SDS011;10880;50.302;18.736;2023-03-20T09:21:28;10.73;;;5.70;;
21438;SDS011;10880;50.302;18.736;2023-03-20T09:23:55;8.90;;;5.93;;
21438;SDS011;10880;50.302;18.736;2023-03-20T09:26:22;8.17;;;6.03;;
21438;SDS011;10880;50.302;18.736;2023-03-20T09:28:48;6.77;;;4.97;;
21438;SDS011;10880;50.302;18.736;2023-03-20T09:31:15;8.23;;;4.83;;
21438;SDS011;10880;50.302;18.736;2023-03-20T09:33:43;6.27;;;4.70;;
21438;SDS011;10880;50.302;18.736;2023-03-20T09:36:09;7.13;;;4.40;;
21438;SDS011;10880;50.302;18.736;2023-03-20T09:38:36;6.90;;;5.30;;
21438;SDS011;10880;50.302;18.736;2023-03-20T09:41:11;7.27;;;4.80;;
21438;SDS011;10880;50.302;18.736;2023-03-20T09:43:54;6.73;;;5.10;;
21438;SDS011;10880;50.302;18.736;2023-03-20T09:51:42;6.13;;;4.30;;
21438;SDS011;10880;50.302;18.736;2023-03-20T09:54:24;7.30;;;5.33;;
21438;SDS011;10880;50.302;18.736;2023-03-20T09:57:01;5.70;;;4.40;;
21438;SDS011;10880;50.302;18.736;2023-03-20T09:59:29;8.57;;;5.40;;
21438;SDS011;10880;50.302;18.736;2023-03-20T10:02:01;7.03;;;5.20;;
21438;SDS011;10880;50.302;18.736;2023-03-20T10:04:39;9.80;;;5.70;;
21438;SDS011;10880;50.302;18.736;2023-03-20T10:07:08;9.13;;;5.30;;
21438;SDS011;10880;50.302;18.736;2023-03-20T10:09:38;8.70;;;5.17;;
21438;SDS011;10880;50.302;18.736;2023-03-20T10:12:08;4.43;;;3.80;;
21438;SDS011;10880;50.302;18.736;2023-03-20T10:18:00;6.10;;;4.87;;
